• Join FlightAware (Why Join?)
  • Login
  • US Flag 
01:22AM EDT


 

Airport Tracker/Info


-or-


 

Live Flight TrackerFlight Track Log ✈ XOJ750 ✈ 04-Jul-2013 ✈ KTEB - KMDW

Flight Track Log - Related Links

Times and Time Zones

All times are in EDT time to prevent confusion due to time zone crossing. See the XOJ750 flight status page for this flight to view local times or setup timezone preferences in your user account.

Time Position Orientation Groundspeed Altitude Reporting Facility
EDT Latitude Longitude Course Direction KTS MPH feet Rate Location/Type
12:40PM 40.8167 -74.1333 270° West 209 241 1,600  Level New York TRACON
12:41PM 40.8167 -74.2167 270° West 240 276 4,200 2,820 Climbing New York TRACON
12:44PM 40.8339 -74.4381 276° West 267 307 11,200 2,700 Climbing New York Center
12:45PM 40.8486 -74.5650 279° West 304 350 13,300 1,860 Climbing New York Center
12:46PM 40.9000 -74.9633 270° West  Level FlightAware Approximate
12:46PM 40.8614 -74.6808 278° West 341 392 15,000  Level New York Center
12:47PM 40.8483 -74.8228 263° West 360 414 17,900 2,340 Climbing New York Center
12:48PM 40.8314 -74.9506 260° West 365 420 19,700 1,680 Climbing New York Center
12:49PM 40.8161 -75.0869 262° West 365 420 21,400 1,680 Climbing New York Center
12:50PM 40.7986 -75.2228 260° West 370 426 23,100 1,620 Climbing New York Center
12:51PM 40.7811 -75.3506 260° West 385 443 24,700 1,500 Climbing New York Center
12:52PM 40.7631 -75.4889 260° West 395 455 26,200 1,440 Climbing New York Center
12:53PM 40.7428 -75.6356 260° West 400 460 27,700 1,440 Climbing New York Center
12:54PM 40.7281 -75.7822 263° West 405 466 29,200 1,380 Climbing New York Center
12:55PM 40.7050 -75.9367 259° West 418 481 30,500 1,320 Climbing New York Center
12:56PM 40.7061 -76.0956 271° West 425 489 31,800 1,320 Climbing New York Center
12:57PM 40.7278 -76.2589 280° West 438 504 33,100 1,200 Climbing New York Center
12:58PM 40.7483 -76.4414 279° West 453 521 34,300 1,080 Climbing New York Center
12:59PM 40.7714 -76.6133 280° West 463 533 35,300 1,020 Climbing New York Center
01:00PM 40.7914 -76.7931 278° West 485 558 36,400 1,020 Climbing New York Center
01:01PM 40.8139 -76.9653 280° West 492 566 37,400 900 Climbing New York Center
01:02PM 40.8356 -77.1481 279° West 492 566 38,200 780 Climbing New York Center
01:03PM 40.8569 -77.3286 279° West 492 566 39,000 780 Climbing New York Center
01:05PM 40.8950 -77.6686 279° West 495 570 40,500 720 Climbing Cleveland Center
01:06PM 40.9142 -77.8464 278° West 495 570 41,200 720 Climbing Cleveland Center
01:07PM 40.9350 -78.0269 279° West 500 575 42,000 780 Climbing Cleveland Center
01:08PM 40.9533 -78.1994 278° West 500 575 42,800 480 Climbing Cleveland Center
01:09PM 40.9758 -78.3800 279° West 500 575 43,000 60 Climbing Cleveland Center
01:10PM 40.9936 -78.5583 278° West 500 575 43,000  Level Cleveland Center
01:11PM 41.0114 -78.7394 277° West 500 575 43,000  Level Cleveland Center
01:12PM 41.0308 -78.9206 278° West 500 575 43,000  Level Cleveland Center
01:13PM 41.0478 -79.0992 277° West 500 575 43,000  Level Cleveland Center
01:14PM 41.0667 -79.2806 278° West 500 575 43,000  Level Cleveland Center
01:15PM 41.0853 -79.4564 278° West 500 575 43,000  Level Cleveland Center
01:16PM 41.1014 -79.6408 277° West 500 575 43,000  Level Cleveland Center
01:17PM 41.1172 -79.8169 277° West 500 575 43,000  Level Cleveland Center
01:18PM 41.1308 -79.9628 277° West 500 575 43,000  Level Cleveland Center
01:19PM 41.1506 -80.1750 277° West 500 575 43,000  Level Cleveland Center
01:20PM 41.1675 -80.3542 277° West 500 575 43,000  Level Cleveland Center
01:21PM 41.1803 -80.5333 275° West 500 575 43,000  Level Cleveland Center
01:22PM 41.1969 -80.7128 277° West 500 575 43,000  Level Cleveland Center
01:23PM 41.2111 -80.8922 276° West 500 575 43,000  Level Cleveland Center
01:24PM 41.2253 -81.0689 276° West 494 568 43,000  Level Cleveland Center
01:25PM 41.2369 -81.2236 276° West 489 563 43,000  Level Cleveland Center
01:26PM 41.2503 -81.4006 276° West 482 555 43,000  Level Cleveland Center
01:27PM 41.2697 -81.5778 278° West 482 555 43,000  Level Cleveland Center
01:28PM 41.2825 -81.7631 275° West 487 560 43,000  Level Cleveland Center
01:29PM 41.2972 -81.9431 276° West 497 572 43,000  Level Cleveland Center
01:30PM 41.3072 -82.1422 274° West 497 572 43,000  Level Cleveland Center
01:31PM 41.3214 -82.3250 276° West 497 572 43,000  Level Cleveland Center
01:32PM 41.3331 -82.5022 275° West 497 572 43,000  Level Cleveland Center
01:33PM 41.3447 -82.6658 275° West 497 572 43,000  Level Cleveland Center
01:34PM 41.3558 -82.8489 275° West 502 578 43,000  Level Cleveland Center
01:35PM 41.3667 -83.0289 275° West 496 571 43,000  Level Cleveland Center
01:36PM 41.3794 -83.2067 276° West 496 571 43,000  Level Cleveland Center
01:37PM 41.3897 -83.3869 274° West 496 571 43,000  Level Cleveland Center
01:38PM 41.3997 -83.5700 274° West 496 571 43,000 -900 Level Cleveland Center
01:39PM 41.4117 -83.7450 275° West 496 571 41,200 -1,800 Descending Cleveland Center
01:40PM 41.4217 -83.9064 275° West 472 543 39,500 -1,740 Descending Cleveland Center
01:41PM 41.4358 -84.1161 275° West 447 514 37,200 -2,220 Descending Chicago Center
01:42PM 41.4469 -84.3286 274° West 477 549 34,300 -2,520 Descending Chicago Center
01:43PM 41.4567 -84.5111 274° West 492 566 32,100 -2,100 Descending Chicago Center
01:44PM 41.4656 -84.6942 274° West 495 570 30,000 -1,320 Descending Chicago Center
01:45PM 41.4753 -84.8722 274° West 485 558 29,400 -1,020 Descending Chicago Center
01:46PM 41.4833 -85.0458 274° West 472 543 27,900 -1,680 Descending Chicago Center
01:47PM 41.4908 -85.2247 273° West 479 551 26,000 -2,220 Descending Chicago Center
01:48PM 41.4983 -85.4089 273° West 484 557 23,400 -2,340 Descending Chicago Center
01:49PM 41.5061 -85.5756 274° West 431 496 21,300 -1,920 Descending Chicago Center
01:50PM 41.5131 -85.7278 274° West 410 472 19,500 -1,800 Descending Chicago Center
01:51PM 41.5192 -85.8847 273° West 421 484 17,700 -2,160 Descending Chicago Center
01:52PM 41.5244 -86.0658 272° West 408 470 15,100 -2,220 Descending Chicago Center
01:53PM 41.5231 -86.2181 269° West 409 471 13,200 -1,980 Descending Chicago Center
01:54PM 41.5225 -86.3689 270° West 410 472 11,100 -1,620 Descending Chicago Center
01:55PM 41.5217 -86.5086 270° West 383 441 10,000 -540 Descending Chicago Center
01:56PM 41.5208 -86.6406 270° West 362 417 10,000  Level Chicago Center
01:57PM 41.5197 -86.7758 269° West 357 411 10,000 -540 Level Chicago Center
01:58PM 41.5186 -86.8828 269° West 289 333 9,000 -1,320 Descending Chicago Center
01:59PM 41.5172 -86.9817 269° West 271 312 7,300 -1,560 Descending Chicago Center
02:01PM 41.5450 -87.0914 289° West 265 305 5,900 -720 Descending Chicago Center
02:02PM 41.5606 -87.1858 282° West 265 305 5,900 -480 Level Chicago Center
02:03PM 41.5853 -87.2783 290° West 266 306 5,000 -1,020 Descending Chicago Center
02:04PM 41.6081 -87.3711 288° West 266 306 3,900 -540 Descending Chicago Center
02:05PM 41.6294 -87.4539 289° West 253 291 3,900  Level Chicago Center
02:06PM 41.6497 -87.5353 288° West 242 278 3,900 -360 Level Chicago Center
02:07PM 41.6872 -87.6161 302° West 226 260 3,200 -900 Descending Chicago Center
02:08PM 41.7256 -87.6694 314° West 212 244 2,100 -900 Descending Chicago Center
02:09PM 41.7586 -87.7161 314° West 195 224 1,400 -300 Descending Chicago Center
02:10PM 41.7956 -87.6986 19° North 173 199 1,500 -120 Climbing Chicago Center
02:11PM 41.8100 -87.7214 310° West 164 189 1,200 -300 Descending Chicago Center
02:13PM 41.7833 -87.7500 340° North  Level FlightAware Approximate